Time;durP1;ratioP1;P1;durP2;ratioP2;P2;SDS_P1;SDS_P2;PMS_P1;PMS_P2;Temp;Humidity;BMP_temperature;BMP_pressure;BME280_temperature;BME280_humidity;BME280_pressure;Samples;Min_cycle;Max_cycle;Signal;HPM_P1;HPM_P2
2023/01/13 00:02:12;;;;;;;;;;;;;;;2.50;89.31;98242.50;106652;1281;25265;-74
2023/01/13 00:04:39;;;;;;;;;;;;;;;2.51;89.30;98241.11;106580;1274;22514;-74
2023/01/13 00:07:05;;;;;;;;;;;;;;;2.53;89.42;98240.16;106557;1263;124371;-74
2023/01/13 00:09:32;;;;;;;;;;;;;;;2.54;89.75;98237.30;106547;1282;22624;-74
2023/01/13 00:11:59;;;;;;;;;;;;;;;2.58;89.86;98235.23;106516;1283;124929;-74
2023/01/13 00:14:28;;;;;;;;;;;;;;;2.60;89.97;98227.50;106584;1283;25322;-74
2023/01/13 00:16:55;;;;;;;;;;;;;;;2.66;90.23;98224.68;106589;1257;25242;-74
2023/01/13 00:19:22;;;;;;;;;;;;;;;2.72;90.19;98222.11;106547;1281;124721;-74
2023/01/13 00:21:48;;;;;;;;;;;;;;;2.77;90.08;98224.52;106631;1281;25216;-74
2023/01/13 00:24:15;;;;;;;;;;;;;;;2.81;90.09;98229.70;106550;1281;124903;-74
2023/01/13 00:26:42;;;;;;;;;;;;;;;2.84;89.88;98227.15;106672;1263;22558;-74
2023/01/13 00:29:09;;;;;;;;;;;;;;;2.85;89.58;98225.17;106616;1281;22520;-74
2023/01/13 00:31:35;;;;;;;;;;;;;;;2.86;89.56;98226.16;106517;1281;124313;-74
2023/01/13 00:34:03;;;;;;;;;;;;;;;2.87;89.59;98227.53;106674;1281;23206;-74
2023/01/13 00:36:30;;;;;;;;;;;;;;;2.88;89.64;98226.88;106640;1281;124374;-74
2023/01/13 00:38:57;;;;;;;;;;;;;;;2.88;89.74;98223.61;106783;1264;22586;-74
2023/01/13 00:41:24;;;;;;;;;;;;;;;2.91;89.68;98223.45;106662;1281;22518;-74
2023/01/13 00:43:51;;;;;;;;;;;;;;;2.91;89.58;98220.72;106618;1281;24344;-74
2023/01/13 00:46:19;;;;;;;;;;;;;;;2.90;89.22;98224.04;106601;1281;22512;-74
2023/01/13 00:48:47;;;;;;;;;;;;;;;2.89;89.36;98224.82;106493;1263;124325;-74
2023/01/13 00:51:16;;;;;;;;;;;;;;;2.88;89.33;98222.91;106615;1281;22544;-74
2023/01/13 00:53:44;;;;;;;;;;;;;;;2.85;89.26;98221.64;106508;1281;124456;-74
2023/01/13 00:56:15;;;;;;;;;;;;;;;2.83;89.24;98217.83;106609;1281;22810;-74
2023/01/13 00:58:43;;;;;;;;;;;;;;;2.80;89.15;98215.18;106627;1264;25334;-74
2023/01/13 01:01:11;;;;;;;;;;;;;;;2.77;89.31;98213.81;106811;1274;124466;-74
2023/01/13 01:03:38;;;;;;;;;;;;;;;2.74;89.23;98217.19;106530;1281;25321;-73
2023/01/13 01:06:06;;;;;;;;;;;;;;;2.72;89.70;98210.81;106376;1281;124556;-74
2023/01/13 01:08:33;;;;;;;;;;;;;;;2.72;89.81;98209.20;106468;1263;22516;-74
2023/01/13 01:11:05;;;;;;;;;;;;;;;2.72;89.88;98213.21;106484;1282;23886;-74
2023/01/13 01:13:32;;;;;;;;;;;;;;;2.72;89.93;98211.77;106386;1281;124756;-73
2023/01/13 01:15:58;;;;;;;;;;;;;;;2.71;90.05;98210.73;106513;1281;22512;-74
2023/01/13 01:18:25;;;;;;;;;;;;;;;2.72;90.21;98210.15;106443;1263;124507;-74
2023/01/13 01:20:52;;;;;;;;;;;;;;;2.74;90.48;98208.62;106492;1281;24364;-74
2023/01/13 01:23:19;;;;;;;;;;;;;;;2.75;90.38;98204.86;106500;1281;24269;-74
2023/01/13 01:25:45;;;;;;;;;;;;;;;2.77;90.20;98200.90;106469;1281;124114;-73
2023/01/13 01:28:12;;;;;;;;;;;;;;;2.78;90.50;98194.41;106512;1264;22517;-74
2023/01/13 01:30:39;;;;;;;;;;;;;;;2.79;90.26;98193.38;106402;1281;124265;-74
2023/01/13 01:33:05;;;;;;;;;;;;;;;2.80;90.51;98189.98;106609;1281;25472;-74
2023/01/13 01:35:32;;;;;;;;;;;;;;;2.81;90.47;98183.03;106508;1281;124420;-74
2023/01/13 01:37:59;;;;;;;;;;;;;;;2.82;90.52;98178.95;106596;1281;22504;-73
2023/01/13 01:40:26;;;;;;;;;;;;;;;2.83;90.44;98178.84;106513;1273;275424;-73
2023/01/13 01:45:38;;;;;;;;;;;;;;;2.84;90.41;98173.54;106597;1281;22521;-73
2023/01/13 01:48:06;;;;;;;;;;;;;;;2.84;90.50;98178.29;106524;1281;124606;-74
2023/01/13 01:50:33;;;;;;;;;;;;;;;2.85;90.64;98174.23;106611;1263;24265;-73
2023/01/13 01:53:12;;;;;;;;;;;;;;;2.85;90.28;98171.19;106595;1281;25258;-73
2023/01/13 01:55:39;;;;;;;;;;;;;;;2.84;90.36;98168.25;106516;1281;125112;-73
2023/01/13 01:58:05;;;;;;;;;;;;;;;2.84;90.39;98164.80;106654;1281;22700;-73
2023/01/13 02:00:32;;;;;;;;;;;;;;;2.83;90.31;98164.14;106519;1262;125355;-73
2023/01/13 02:03:00;;;;;;;;;;;;;;;2.80;90.19;98160.58;106599;1281;22630;-73
2023/01/13 02:05:27;;;;;;;;;;;;;;;2.79;90.10;98160.54;106511;1273;124933;-74
2023/01/13 02:07:55;;;;;;;;;;;;;;;2.78;90.28;98164.54;106619;1270;24215;-75
2023/01/13 02:10:24;;;;;;;;;;;;;;;2.74;90.08;98154.39;106969;1263;22942;-73
2023/01/13 02:12:52;;;;;;;;;;;;;;;2.70;90.15;98152.07;106598;1281;124409;-73
2023/01/13 02:15:26;;;;;;;;;;;;;;;2.67;90.14;98150.94;106810;1275;25347;-73
2023/01/13 02:17:52;;;;;;;;;;;;;;;2.64;90.42;98151.55;106658;1281;124470;-73
2023/01/13 02:20:25;;;;;;;;;;;;;;;2.61;90.41;98147.56;106584;1262;25312;-73
2023/01/13 02:22:52;;;;;;;;;;;;;;;2.58;90.53;98142.89;106603;1281;22522;-73
2023/01/13 02:25:31;;;;;;;;;;;;;;;2.55;90.20;98143.79;106512;1281;124800;-73
2023/01/13 02:28:13;;;;;;;;;;;;;;;2.53;90.65;98143.19;106633;1273;24325;-73
2023/01/13 02:33:26;;;;;;;;;;;;;;;2.48;90.86;98140.41;106573;1281;22562;-73
2023/01/13 02:36:26;;;;;;;;;;;;;;;2.46;90.69;98139.23;106853;1281;124999;-73
2023/01/13 02:38:58;;;;;;;;;;;;;;;2.44;90.87;98142.73;106430;1281;22661;-73
2023/01/13 02:44:24;;;;;;;;;;;;;;;2.40;90.99;98134.34;106445;1273;25202;-73
2023/01/13 02:46:58;;;;;;;;;;;;;;;2.38;90.93;98130.04;106147;1280;22615;-73
2023/01/13 02:49:28;;;;;;;;;;;;;;;2.35;90.87;98119.89;106238;1280;124346;-74
2023/01/13 02:51:58;;;;;;;;;;;;;;;2.33;90.87;98122.23;106218;1285;23926;-73
2023/01/13 02:54:26;;;;;;;;;;;;;;;2.31;91.02;98123.27;106070;1281;124398;-73
2023/01/13 02:56:54;;;;;;;;;;;;;;;2.29;90.91;98123.00;106185;1281;22525;-73
2023/01/13 02:59:25;;;;;;;;;;;;;;;2.26;91.05;98123.57;106166;1284;22636;-73
2023/01/13 03:01:54;;;;;;;;;;;;;;;2.24;91.32;98116.54;106055;1270;125273;-73
2023/01/13 03:04:39;;;;;;;;;;;;;;;2.22;91.02;98113.23;106108;1288;25439;-73
2023/01/13 03:07:13;;;;;;;;;;;;;;;2.19;91.12;98113.41;106033;1288;125430;-73
2023/01/13 03:09:49;;;;;;;;;;;;;;;2.17;91.34;98109.89;106311;1280;22538;-73
2023/01/13 03:12:25;;;;;;;;;;;;;;;2.16;91.68;98109.19;106113;1271;125075;-74
2023/01/13 03:14:56;;;;;;;;;;;;;;;2.15;91.69;98105.13;106419;1281;23413;-73
2023/01/13 03:17:31;;;;;;;;;;;;;;;2.14;91.79;98104.17;106605;1281;22538;-73
2023/01/13 03:20:07;;;;;;;;;;;;;;;2.14;92.02;98099.25;106582;1282;25217;-73
2023/01/13 03:22:37;;;;;;;;;;;;;;;2.13;92.23;98099.01;106638;1263;22769;-73
2023/01/13 03:25:16;;;;;;;;;;;;;;;2.13;92.42;98093.15;106545;1281;124787;-73
2023/01/13 03:27:43;;;;;;;;;;;;;;;2.13;92.55;98093.11;106702;1280;25214;-73
2023/01/13 03:30:19;;;;;;;;;;;;;;;2.13;92.52;98097.52;106546;1281;124644;-73
2023/01/13 03:32:48;;;;;;;;;;;;;;;2.14;92.84;98097.03;106634;1264;23263;-73
2023/01/13 03:35:21;;;;;;;;;;;;;;;2.16;93.12;98093.77;106558;1281;22508;-73
2023/01/13 03:37:52;;;;;;;;;;;;;;;2.18;93.20;98098.13;108632;1281;124241;-73
2023/01/13 03:40:25;;;;;;;;;;;;;;;2.21;93.16;98094.58;106699;1274;22627;-73
2023/01/13 03:45:40;;;;;;;;;;;;;;;2.27;93.64;98090.30;106641;1281;22554;-73
2023/01/13 03:48:14;;;;;;;;;;;;;;;2.32;93.66;98092.10;106543;1281;124439;-73
2023/01/13 03:50:44;;;;;;;;;;;;;;;2.34;93.74;98086.08;106602;1281;25351;-73
2023/01/13 03:53:18;;;;;;;;;;;;;;;2.39;93.96;98090.02;106631;1262;24260;-73
2023/01/13 03:55:51;;;;;;;;;;;;;;;2.42;93.86;98089.02;106519;1281;124779;-73
2023/01/13 03:58:21;;;;;;;;;;;;;;;2.45;93.83;98088.30;106881;1275;22635;-73
2023/01/13 04:00:55;;;;;;;;;;;;;;;2.49;93.83;98086.75;106551;1281;124465;-73
2023/01/13 04:03:35;;;;;;;;;;;;;;;2.53;93.98;98083.78;106965;1259;22529;-74
2023/01/13 04:06:15;;;;;;;;;;;;;;;2.56;93.88;98082.91;106530;1281;124818;-73
2023/01/13 04:08:47;;;;;;;;;;;;;;;2.59;93.85;98086.48;106587;1281;24101;-73
2023/01/13 04:11:18;;;;;;;;;;;;;;;2.61;93.74;98087.60;106565;1282;22606;-73
2023/01/13 04:13:46;;;;;;;;;;;;;;;2.64;93.60;98083.89;106509;1263;124350;-73
2023/01/13 04:16:13;;;;;;;;;;;;;;;2.66;93.57;98085.09;106586;1282;25331;-73
2023/01/13 04:18:40;;;;;;;;;;;;;;;2.67;93.49;98086.54;106464;1282;124486;-73
2023/01/13 04:21:07;;;;;;;;;;;;;;;2.70;93.70;98082.77;106621;1281;26671;-73
2023/01/13 04:23:34;;;;;;;;;;;;;;;2.72;93.82;98084.23;106534;1262;124439;-74
2023/01/13 04:26:01;;;;;;;;;;;;;;;2.76;93.71;98082.13;106620;1281;22597;-73
2023/01/13 04:28:28;;;;;;;;;;;;;;;2.79;93.72;98084.08;106624;1281;22570;-73
2023/01/13 04:30:55;;;;;;;;;;;;;;;2.81;93.42;98082.80;106528;1281;124302;-73
2023/01/13 04:33:22;;;;;;;;;;;;;;;2.84;93.59;98081.08;106638;1262;23124;-73
2023/01/13 04:35:48;;;;;;;;;;;;;;;2.86;93.34;98080.58;106521;1281;124473;-73
2023/01/13 04:38:17;;;;;;;;;;;;;;;2.88;93.29;98083.40;106575;1281;22627;-73
2023/01/13 04:40:44;;;;;;;;;;;;;;;2.89;93.00;98085.05;106635;1281;24259;-73
2023/01/13 04:43:11;;;;;;;;;;;;;;;2.89;92.92;98091.67;106487;1265;124371;-73
2023/01/13 04:45:38;;;;;;;;;;;;;;;2.90;93.04;98091.18;106701;1282;25394;-73
2023/01/13 04:48:05;;;;;;;;;;;;;;;2.91;92.83;98091.38;106530;1280;125061;-73
2023/01/13 04:50:31;;;;;;;;;;;;;;;2.92;92.74;98092.87;106734;1279;22543;-73
2023/01/13 04:53:00;;;;;;;;;;;;;;;2.92;92.81;98087.46;106711;1262;23341;-73
2023/01/13 04:55:26;;;;;;;;;;;;;;;2.93;92.92;98090.77;106558;1281;124766;-73
2023/01/13 04:57:53;;;;;;;;;;;;;;;2.93;92.66;98089.52;106625;1281;25373;-73
2023/01/13 05:00:21;;;;;;;;;;;;;;;2.93;92.82;98089.89;106548;1281;124419;-73
2023/01/13 05:02:49;;;;;;;;;;;;;;;2.93;92.64;98087.90;106642;1259;25429;-73
2023/01/13 05:05:17;;;;;;;;;;;;;;;2.94;92.64;98086.58;106775;1266;27778;-75
2023/01/13 05:07:44;;;;;;;;;;;;;;;2.94;92.61;98086.95;106717;1278;124549;-73
2023/01/13 05:10:11;;;;;;;;;;;;;;;2.94;92.79;98090.88;106685;1282;23023;-73
2023/01/13 05:18:08;;;;;;;;;;;;;;;2.94;92.92;98095.11;106552;1281;124451;-73
2023/01/13 05:20:35;;;;;;;;;;;;;;;2.96;93.10;98101.65;106662;1281;22513;-73
2023/01/13 05:25:48;;;;;;;;;;;;;;;3.01;92.95;98095.83;106565;1281;125427;-73
2023/01/13 05:28:15;;;;;;;;;;;;;;;3.00;92.26;98096.11;106638;1281;23931;-74
2023/01/13 05:30:43;;;;;;;;;;;;;;;2.97;92.04;98096.10;106547;1280;124826;-73
2023/01/13 05:33:10;;;;;;;;;;;;;;;2.98;92.33;98096.93;106970;1257;22532;-73
2023/01/13 05:35:38;;;;;;;;;;;;;;;3.00;92.74;98093.09;106621;1281;124477;-73
2023/01/13 05:38:04;;;;;;;;;;;;;;;3.02;92.74;98096.90;106707;1281;22511;-73
2023/01/13 05:43:24;;;;;;;;;;;;;;;3.07;92.84;98107.29;106587;1259;124302;-73
2023/01/13 05:46:05;;;;;;;;;;;;;;;3.08;92.55;98104.10;106672;1280;25396;-73
2023/01/13 05:48:40;;;;;;;;;;;;;;;3.08;92.40;98095.13;106547;1280;126381;-73
2023/01/13 05:51:08;;;;;;;;;;;;;;;3.07;92.57;98093.55;106650;1281;22520;-73
2023/01/13 05:53:35;;;;;;;;;;;;;;;3.08;92.63;98094.80;106574;1257;125923;-74
2023/01/13 05:56:03;;;;;;;;;;;;;;;3.07;92.82;98094.30;106642;1281;22516;-73
2023/01/13 05:58:30;;;;;;;;;;;;;;;3.09;92.77;98100.92;106667;1280;25392;-73
2023/01/13 06:01:03;;;;;;;;;;;;;;;3.10;92.91;98102.86;106535;1281;124321;-73
2023/01/13 06:03:29;;;;;;;;;;;;;;;3.11;92.83;98099.55;106810;1281;23869;-73
2023/01/13 06:06:00;;;;;;;;;;;;;;;3.13;93.04;98104.64;106595;1263;124591;-73
2023/01/13 06:08:27;;;;;;;;;;;;;;;3.15;92.93;98102.58;106726;1275;22519;-73
2023/01/13 06:10:53;;;;;;;;;;;;;;;3.18;93.10;98100.60;106649;1280;22526;-73
2023/01/13 06:13:20;;;;;;;;;;;;;;;3.22;93.19;98102.83;106695;1281;124278;-73
2023/01/13 06:15:47;;;;;;;;;;;;;;;3.26;93.04;98102.05;106663;1279;23296;-73
2023/01/13 06:18:14;;;;;;;;;;;;;;;3.31;93.01;98107.67;106583;1281;124471;-73
2023/01/13 06:20:41;;;;;;;;;;;;;;;3.34;92.81;98108.59;106657;1280;22512;-73
2023/01/13 06:23:09;;;;;;;;;;;;;;;3.37;92.59;98105.40;106653;1281;22518;-73
2023/01/13 06:25:36;;;;;;;;;;;;;;;3.39;92.79;98110.04;106509;1262;124702;-73
2023/01/13 06:28:03;;;;;;;;;;;;;;;3.42;92.81;98106.27;106646;1279;22513;-73
2023/01/13 06:30:34;;;;;;;;;;;;;;;3.45;92.64;98108.01;106561;1280;125161;-73
2023/01/13 06:33:03;;;;;;;;;;;;;;;3.48;92.66;98104.60;106879;1281;25460;-73
2023/01/13 06:35:33;;;;;;;;;;;;;;;3.51;92.62;98108.54;106606;1263;25207;-73
2023/01/13 06:38:01;;;;;;;;;;;;;;;3.53;92.52;98109.48;106798;1282;22507;-73
2023/01/13 06:40:28;;;;;;;;;;;;;;;3.54;92.49;98110.20;106593;1281;23922;-73
2023/01/13 06:43:15;;;;;;;;;;;;;;;3.58;92.54;98110.81;106807;1275;124391;-74
2023/01/13 06:45:59;;;;;;;;;;;;;;;3.60;92.48;98107.70;107069;1261;24190;-74
2023/01/13 06:48:31;;;;;;;;;;;;;;;3.64;92.43;98104.27;106654;1281;124400;-73
2023/01/13 06:50:58;;;;;;;;;;;;;;;3.68;92.27;98104.46;109497;1281;22954;-73
2023/01/13 06:53:25;;;;;;;;;;;;;;;3.71;92.18;98103.46;106575;1281;22514;-73
2023/01/13 06:55:52;;;;;;;;;;;;;;;3.74;92.09;98105.70;106551;1262;124136;-73
2023/01/13 06:58:18;;;;;;;;;;;;;;;3.76;91.82;98105.57;106622;1280;25559;-73
2023/01/13 07:00:50;;;;;;;;;;;;;;;3.79;91.65;98106.11;106522;1281;124419;-73
2023/01/13 07:03:17;;;;;;;;;;;;;;;3.81;91.43;98101.00;106607;1281;22515;-73
2023/01/13 07:05:50;;;;;;;;;;;;;;;3.83;91.42;98107.92;106485;1262;124490;-73
2023/01/13 07:08:17;;;;;;;;;;;;;;;3.84;91.29;98107.46;106517;1277;25272;-73
2023/01/13 07:10:44;;;;;;;;;;;;;;;3.85;91.19;98111.64;106558;1280;24333;-73
2023/01/13 07:15:57;;;;;;;;;;;;;;;3.87;91.04;98112.39;106544;1262;22951;-73
2023/01/13 07:18:26;;;;;;;;;;;;;;;3.89;91.11;98112.34;106416;1272;124296;-74
2023/01/13 07:20:57;;;;;;;;;;;;;;;3.95;91.96;98113.20;106632;1280;22530;-73
2023/01/13 07:23:25;;;;;;;;;;;;;;;4.06;91.63;98108.73;106559;1280;25347;-73
2023/01/13 07:25:55;;;;;;;;;;;;;;;4.13;91.03;98103.64;106429;1262;124116;-73
2023/01/13 07:28:22;;;;;;;;;;;;;;;4.18;90.84;98100.90;106830;1281;22902;-73
2023/01/13 07:30:49;;;;;;;;;;;;;;;4.24;90.68;98100.04;106524;1281;124552;-73
2023/01/13 07:33:17;;;;;;;;;;;;;;;4.29;90.58;98104.64;106603;1281;25322;-73
2023/01/13 07:35:44;;;;;;;;;;;;;;;4.34;90.39;98104.18;106583;1257;124409;-74
2023/01/13 07:38:11;;;;;;;;;;;;;;;4.40;90.24;98104.72;106661;1280;22516;-73
2023/01/13 07:40:38;;;;;;;;;;;;;;;4.46;90.19;98101.63;106637;1280;22524;-73
2023/01/13 07:45:54;;;;;;;;;;;;;;;4.57;90.02;98097.67;106841;1259;22514;-73
2023/01/13 07:48:21;;;;;;;;;;;;;;;4.62;89.67;98099.46;106680;1281;124302;-74
2023/01/13 07:50:48;;;;;;;;;;;;;;;4.68;89.64;98099.92;106657;1281;25312;-73
2023/01/13 07:53:15;;;;;;;;;;;;;;;4.75;89.64;98101.52;106649;1281;22526;-73
2023/01/13 07:55:42;;;;;;;;;;;;;;;4.80;89.18;98097.34;106579;1281;124300;-74
2023/01/13 07:58:09;;;;;;;;;;;;;;;4.85;89.24;98097.98;106638;1262;23025;-73
2023/01/13 08:00:37;;;;;;;;;;;;;;;4.90;89.17;98100.09;106545;1281;124288;-73
2023/01/13 08:03:04;;;;;;;;;;;;;;;4.96;89.00;98106.13;106664;1275;27000;-73
2023/01/13 08:05:31;;;;;;;;;;;;;;;5.01;88.89;98105.59;106661;1281;22517;-73
2023/01/13 08:07:57;;;;;;;;;;;;;;;5.06;88.66;98107.05;106414;1281;124146;-73
2023/01/13 08:10:24;;;;;;;;;;;;;;;5.10;88.40;98105.48;106556;1278;25393;-73
2023/01/13 08:15:36;;;;;;;;;;;;;;;5.20;88.27;98106.87;106533;1281;25214;-73
2023/01/13 08:18:03;;;;;;;;;;;;;;;5.24;88.00;98110.33;107546;1263;124565;-74
2023/01/13 08:20:30;;;;;;;;;;;;;;;5.29;87.71;98103.94;106881;1275;22663;-73
2023/01/13 08:22:57;;;;;;;;;;;;;;;5.33;87.43;98087.62;106770;1281;23886;-73
2023/01/13 08:25:25;;;;;;;;;;;;;;;5.40;87.15;98087.05;106808;1275;125080;-73
2023/01/13 08:27:52;;;;;;;;;;;;;;;5.46;86.91;98094.12;106816;1262;23764;-73
2023/01/13 08:30:19;;;;;;;;;;;;;;;5.52;86.85;98095.40;106806;1270;124313;-73
2023/01/13 08:32:47;;;;;;;;;;;;;;;5.59;86.64;98088.14;106718;1275;22530;-74
2023/01/13 08:35:14;;;;;;;;;;;;;;;5.65;86.24;98090.45;106722;1268;26046;-73
2023/01/13 08:37:41;;;;;;;;;;;;;;;5.71;86.15;98088.90;106984;1268;124407;-73
2023/01/13 08:40:11;;;;;;;;;;;;;;;5.78;85.84;98087.84;106494;1281;22505;-73
2023/01/13 08:42:38;;;;;;;;;;;;;;;5.85;85.39;98086.92;106486;1274;124366;-73
2023/01/13 08:45:05;;;;;;;;;;;;;;;5.97;85.03;98083.76;106492;1268;22512;-73
2023/01/13 08:47:32;;;;;;;;;;;;;;;6.07;84.72;98086.19;106539;1263;22606;-73
2023/01/13 08:49:59;;;;;;;;;;;;;;;6.18;84.33;98079.33;106426;1282;22634;-73
2023/01/13 08:52:26;;;;;;;;;;;;;;;6.29;83.78;98074.05;106420;1282;22536;-73
2023/01/13 08:54:52;;;;;;;;;;;;;;;6.39;83.35;98080.23;106374;1282;124770;-73
2023/01/13 08:57:19;;;;;;;;;;;;;;;6.49;82.77;98082.57;106479;1258;22495;-73
2023/01/13 08:59:46;;;;;;;;;;;;;;;6.59;82.49;98086.11;106329;1281;124507;-73
2023/01/13 09:02:17;;;;;;;;;;;;;;;6.69;81.93;98088.42;106508;1281;22529;-73
2023/01/13 09:04:44;;;;;;;;;;;;;;;6.78;81.57;98088.92;106483;1281;22564;-73
2023/01/13 09:07:11;;;;;;;;;;;;;;;6.87;81.15;98088.43;106403;1260;124281;-72
2023/01/13 09:09:38;;;;;;;;;;;;;;;6.97;81.06;98091.61;106534;1281;23734;-73
2023/01/13 09:14:51;;;;;;;;;;;;;;;7.18;80.17;98093.39;106494;1281;24420;-73
2023/01/13 09:17:18;;;;;;;;;;;;;;;7.25;79.71;98094.97;106540;1280;23023;-73
2023/01/13 09:19:45;;;;;;;;;;;;;;;7.34;79.41;98093.50;106494;1262;125968;-73
2023/01/13 09:22:14;;;;;;;;;;;;;;;7.42;79.24;98091.92;106590;1280;22527;-73
2023/01/13 09:24:40;;;;;;;;;;;;;;;7.51;79.35;98091.55;106585;1281;124469;-73
2023/01/13 09:27:08;;;;;;;;;;;;;;;7.60;78.97;98086.92;106519;1281;25391;-74
2023/01/13 09:29:35;;;;;;;;;;;;;;;7.69;78.51;98084.27;106388;1263;124739;-73
2023/01/13 09:32:02;;;;;;;;;;;;;;;7.75;78.31;98078.13;106586;1281;22544;-73
2023/01/13 09:37:14;;;;;;;;;;;;;;;7.85;77.41;98071.29;106448;1282;125364;-73
2023/01/13 09:39:41;;;;;;;;;;;;;;;7.89;77.18;98073.59;106566;1262;22511;-73
2023/01/13 09:45:25;;;;;;;;;;;;;;;7.95;76.19;98075.09;106580;1281;22544;-73
2023/01/13 09:47:54;;;;;;;;;;;;;;;7.98;75.99;98070.34;106597;1281;125035;-74
2023/01/13 09:50:21;;;;;;;;;;;;;;;8.01;75.69;98067.86;106551;1281;22649;-73
2023/01/13 09:52:48;;;;;;;;;;;;;;;8.03;75.46;98061.93;106601;1282;25207;-73
2023/01/13 09:55:17;;;;;;;;;;;;;;;8.06;74.83;98061.05;106430;1282;124498;-74
2023/01/13 09:57:45;;;;;;;;;;;;;;;8.07;74.74;98054.27;106555;1281;23375;-73
2023/01/13 10:00:23;;;;;;;;;;;;;;;8.10;74.28;98049.86;106798;1262;124976;-74
2023/01/13 10:03:14;;;;;;;;;;;;;;;8.12;74.20;98044.48;106778;1281;23959;-73
2023/01/13 10:05:43;;;;;;;;;;;;;;;8.15;73.99;98039.67;106498;1279;125304;-73
2023/01/13 10:08:11;;;;;;;;;;;;;;;8.19;73.92;98040.88;106914;1273;25224;-74
2023/01/13 10:10:41;;;;;;;;;;;;;;;8.22;74.18;98040.40;106556;1263;22510;-73
2023/01/13 10:13:14;;;;;;;;;;;;;;;8.26;74.10;98040.98;106489;1281;126243;-73
2023/01/13 10:15:57;;;;;;;;;;;;;;;8.32;74.07;98039.97;106579;1281;23333;-73
2023/01/13 10:18:34;;;;;;;;;;;;;;;8.40;74.02;98038.98;106652;1279;128078;-73
2023/01/13 10:21:06;;;;;;;;;;;;;;;8.48;73.72;98030.16;107026;1262;22518;-73
2023/01/13 10:23:50;;;;;;;;;;;;;;;8.56;73.76;98033.67;106672;1272;24330;-73
2023/01/13 10:26:26;;;;;;;;;;;;;;;8.63;73.52;98029.25;106561;1275;22560;-73
2023/01/13 10:28:53;;;;;;;;;;;;;;;8.70;73.36;98024.42;106521;1281;22541;-74
2023/01/13 10:31:21;;;;;;;;;;;;;;;8.75;73.01;98030.27;106446;1263;124483;-73
2023/01/13 10:33:56;;;;;;;;;;;;;;;8.80;73.04;98030.59;106536;1282;22537;-73
2023/01/13 10:36:23;;;;;;;;;;;;;;;8.85;72.57;98029.30;106462;1282;124659;-73
2023/01/13 10:38:50;;;;;;;;;;;;;;;8.88;72.34;98025.30;106727;1282;22514;-73
2023/01/13 10:41:24;;;;;;;;;;;;;;;8.90;71.76;98026.42;106526;1282;22525;-73
2023/01/13 10:43:51;;;;;;;;;;;;;;;8.94;71.26;98023.48;106404;1282;124160;-73
2023/01/13 10:46:19;;;;;;;;;;;;;;;8.97;71.52;98022.52;106478;1282;22514;-73
2023/01/13 10:48:57;;;;;;;;;;;;;;;8.99;71.83;98018.52;106416;1281;123793;-73
2023/01/13 10:51:41;;;;;;;;;;;;;;;9.01;71.33;98012.55;106620;1273;22515;-74
2023/01/13 10:54:13;;;;;;;;;;;;;;;9.04;71.15;98010.35;106521;1280;124104;-73
2023/01/13 10:56:42;;;;;;;;;;;;;;;9.04;70.71;98004.48;106646;1280;25551;-73
2023/01/13 10:59:21;;;;;;;;;;;;;;;9.04;70.11;98000.60;106648;1280;22529;-73
2023/01/13 11:01:51;;;;;;;;;;;;;;;9.05;69.87;97994.90;106410;1262;124494;-74
2023/01/13 11:04:26;;;;;;;;;;;;;;;9.05;70.17;97995.55;106507;1282;25252;-73
2023/01/13 11:06:53;;;;;;;;;;;;;;;9.06;70.01;97993.05;106450;1282;124496;-74
2023/01/13 11:09:21;;;;;;;;;;;;;;;9.07;69.97;97990.42;106522;1274;22519;-73
2023/01/13 11:11:54;;;;;;;;;;;;;;;9.09;69.66;97992.24;106359;1282;124708;-73
2023/01/13 11:14:31;;;;;;;;;;;;;;;9.12;69.71;97991.80;106653;1282;22524;-73
2023/01/13 11:17:11;;;;;;;;;;;;;;;9.15;69.20;97989.52;106727;1281;22517;-73
2023/01/13 11:19:40;;;;;;;;;;;;;;;9.17;69.12;97982.38;106376;1281;124442;-74
2023/01/13 11:22:18;;;;;;;;;;;;;;;9.18;68.66;97976.62;107388;1263;24202;-73
2023/01/13 11:24:51;;;;;;;;;;;;;;;9.20;68.98;97971.55;106543;1280;124474;-74
2023/01/13 11:27:37;;;;;;;;;;;;;;;9.22;68.69;97969.68;107197;1276;22514;-74
2023/01/13 11:30:08;;;;;;;;;;;;;;;9.25;68.37;97963.42;106541;1279;124784;-74
2023/01/13 11:32:54;;;;;;;;;;;;;;;9.29;69.00;97964.63;106529;1262;22521;-73
2023/01/13 11:35:20;;;;;;;;;;;;;;;9.34;68.74;97963.34;106630;1278;22522;-73
2023/01/13 11:37:52;;;;;;;;;;;;;;;9.37;68.81;97965.39;106450;1281;124461;-74
2023/01/13 11:40:35;;;;;;;;;;;;;;;9.39;68.78;97963.63;106530;1270;23259;-75
2023/01/13 11:43:34;;;;;;;;;;;;;;;9.41;68.74;97964.20;106759;1276;123920;-73
2023/01/13 11:46:01;;;;;;;;;;;;;;;9.43;68.80;97961.84;106458;1287;22984;-73
2023/01/13 11:48:30;;;;;;;;;;;;;;;9.45;68.57;97958.27;106072;1287;124114;-73
2023/01/13 11:51:23;;;;;;;;;;;;;;;9.46;68.59;97959.66;106146;1266;22557;-74
2023/01/13 11:53:55;;;;;;;;;;;;;;;9.46;68.25;97958.36;105950;1288;124001;-74
2023/01/13 11:56:31;;;;;;;;;;;;;;;9.47;67.87;97961.55;106085;1288;22515;-73
2023/01/13 11:59:04;;;;;;;;;;;;;;;9.45;67.93;97955.65;106028;1288;22530;-73
2023/01/13 12:01:49;;;;;;;;;;;;;;;9.44;67.58;97961.81;106306;1268;124699;-74
2023/01/13 12:04:16;;;;;;;;;;;;;;;9.43;67.35;97955.21;106135;1287;22595;-73
2023/01/13 12:06:44;;;;;;;;;;;;;;;9.44;67.20;97949.35;106238;1287;124691;-73
2023/01/13 12:09:32;;;;;;;;;;;;;;;9.46;67.06;97945.79;106087;1288;22517;-74
2023/01/13 12:12:22;;;;;;;;;;;;;;;9.48;67.14;97947.73;105963;1282;124740;-73
2023/01/13 12:14:49;;;;;;;;;;;;;;;9.53;66.85;97949.14;106064;1288;22665;-73
2023/01/13 12:17:29;;;;;;;;;;;;;;;9.57;66.83;97948.92;106154;1286;25271;-73
2023/01/13 12:19:56;;;;;;;;;;;;;;;9.60;66.87;97939.56;106131;1288;123623;-73
2023/01/13 12:22:28;;;;;;;;;;;;;;;9.62;67.09;97938.12;106321;1267;22578;-73
2023/01/13 12:24:55;;;;;;;;;;;;;;;9.63;67.04;97938.96;106361;1283;123792;-74
2023/01/13 12:27:42;;;;;;;;;;;;;;;9.64;66.91;97938.70;106685;1275;24245;-74
2023/01/13 12:30:18;;;;;;;;;;;;;;;9.64;66.85;97936.14;106425;1280;125952;-73
2023/01/13 12:32:45;;;;;;;;;;;;;;;9.63;66.71;97938.63;106687;1263;22521;-74
2023/01/13 12:35:24;;;;;;;;;;;;;;;9.62;66.68;97936.45;106504;1281;22529;-73
2023/01/13 12:37:57;;;;;;;;;;;;;;;9.61;66.71;97934.04;106390;1278;124466;-74
2023/01/13 12:40:33;;;;;;;;;;;;;;;9.61;66.54;97937.13;106510;1282;22554;-73
2023/01/13 12:45:52;;;;;;;;;;;;;;;9.60;66.95;97937.50;106614;1280;22965;-73
2023/01/13 12:48:37;;;;;;;;;;;;;;;9.59;66.44;97932.88;106633;1276;126011;-74
2023/01/13 12:51:19;;;;;;;;;;;;;;;9.58;66.62;97934.46;106616;1280;23268;-73
2023/01/13 12:53:46;;;;;;;;;;;;;;;9.57;66.88;97932.02;106523;1271;126181;-73
2023/01/13 12:56:28;;;;;;;;;;;;;;;9.56;66.97;97930.77;106509;1272;22534;-74
2023/01/13 12:59:14;;;;;;;;;;;;;;;9.55;66.38;97926.30;106805;1278;23296;-74
2023/01/13 13:01:40;;;;;;;;;;;;;;;9.54;66.38;97926.06;106476;1281;124529;-74
2023/01/13 13:04:09;;;;;;;;;;;;;;;9.53;66.67;97923.61;106608;1263;27598;-73
2023/01/13 13:06:38;;;;;;;;;;;;;;;9.52;66.95;97926.80;106545;1280;124658;-73
2023/01/13 13:09:13;;;;;;;;;;;;;;;9.51;66.89;97932.59;106633;1280;22956;-73
2023/01/13 13:14:40;;;;;;;;;;;;;;;9.47;67.01;97939.07;106620;1264;22566;-74
2023/01/13 13:17:13;;;;;;;;;;;;;;;9.45;67.18;97939.63;106493;1282;22512;-73
2023/01/13 13:19:41;;;;;;;;;;;;;;;9.43;67.06;97943.85;106384;1275;124862;-74
2023/01/13 13:22:10;;;;;;;;;;;;;;;9.41;67.35;97946.91;106443;1283;25030;-73
2023/01/13 13:24:38;;;;;;;;;;;;;;;9.40;67.46;97946.74;106348;1266;125129;-74
2023/01/13 13:27:18;;;;;;;;;;;;;;;9.38;67.20;97944.70;106472;1275;22515;-74
2023/01/13 13:29:59;;;;;;;;;;;;;;;9.37;67.04;97949.14;106460;1281;124701;-74
2023/01/13 13:32:45;;;;;;;;;;;;;;;9.35;67.35;97953.69;106539;1269;22518;-74
2023/01/13 13:35:21;;;;;;;;;;;;;;;9.34;67.44;97955.02;106622;1263;23885;-74
2023/01/13 13:49:09;;;;;;;;;;;;;;;9.18;67.73;97962.70;106610;1281;124723;-74
2023/01/13 13:51:41;;;;;;;;;;;;;;;9.14;67.89;97956.74;106560;1281;22543;-74
2023/01/13 13:54:13;;;;;;;;;;;;;;;9.10;68.05;97961.63;106521;1279;125049;-73
2023/01/13 13:56:42;;;;;;;;;;;;;;;9.07;68.27;97968.85;106735;1279;22515;-73